createdAt,value
2016-11-15T00:00:16.296Z,0.6
2016-11-15T00:01:30.003Z,0.61
2016-11-15T00:02:41.119Z,0.68
2016-11-15T00:03:54.865Z,0.67
2016-11-15T00:05:07.345Z,0.6
2016-11-15T00:06:18.463Z,0.53
2016-11-15T00:07:32.159Z,0.58
2016-11-15T00:08:46.064Z,0.63
2016-11-15T00:09:59.784Z,0.58
2016-11-15T00:11:12.199Z,0.58
2016-11-15T00:12:23.335Z,0.6
2016-11-15T00:13:37.060Z,0.57
2016-11-15T00:14:49.518Z,0.54
2016-11-15T00:16:03.296Z,0.58
2016-11-15T00:17:17.014Z,0.58
2016-11-15T00:18:30.756Z,0.58
2016-11-15T00:19:43.159Z,0.57
2016-11-15T00:20:56.837Z,0.61
2016-11-15T00:22:10.550Z,0.61
2016-11-15T00:23:22.970Z,0.61
2016-11-15T00:24:35.394Z,0.6
2016-11-15T00:25:49.076Z,0.58
2016-11-15T00:27:02.793Z,0.49
2016-11-15T00:28:16.478Z,0.64
2016-11-15T00:29:30.175Z,0.6
2016-11-15T00:30:43.874Z,0.6
2016-11-15T00:31:56.382Z,0.58
2016-11-15T00:33:10.094Z,0.72
2016-11-15T00:34:23.793Z,0.71
2016-11-15T00:35:36.254Z,0.63
2016-11-15T00:36:49.961Z,0.74
2016-11-15T00:38:03.676Z,0.71
2016-11-15T00:39:17.475Z,0.76
2016-11-15T00:40:31.169Z,0.74
2016-11-15T00:41:44.862Z,0.76
2016-11-15T00:42:58.560Z,0.78
2016-11-15T00:44:10.953Z,0.81
2016-11-15T00:45:23.358Z,0.82
2016-11-15T00:46:37.179Z,0.82
2016-11-15T00:47:50.870Z,0.82
2016-11-15T00:49:04.569Z,0.81
2016-11-15T00:50:16.976Z,0.84
2016-11-15T00:51:28.095Z,0.79
2016-11-15T00:52:39.208Z,0.84
2016-11-15T00:53:52.941Z,0.79
2016-11-15T00:55:04.147Z,0.84
2016-11-15T00:56:16.561Z,0.81
2016-11-15T00:57:29.087Z,0.81
2016-11-15T00:58:41.480Z,0.81
2016-11-15T00:59:55.417Z,0.85
2016-11-15T01:01:09.333Z,0.82
2016-11-15T01:02:21.733Z,0.85
2016-11-15T01:03:34.175Z,0.81
2016-11-15T01:04:46.574Z,0.86
2016-11-15T01:06:00.279Z,0.78
2016-11-15T01:07:11.393Z,0.76
2016-11-15T01:08:25.074Z,0.68
2016-11-15T01:09:37.483Z,0.75
2016-11-15T01:10:49.901Z,0.78
2016-11-15T01:12:01.182Z,0.79
2016-11-15T01:13:14.905Z,0.68
2016-11-15T01:14:27.372Z,0.72
2016-11-15T01:15:39.798Z,0.63
2016-11-15T01:16:53.494Z,0.6
2016-11-15T01:18:07.209Z,0.75
2016-11-15T01:19:20.900Z,0.61
2016-11-15T01:20:34.582Z,0.71
2016-11-15T01:21:48.272Z,0.74
2016-11-15T01:23:01.999Z,0.76
2016-11-15T01:24:13.113Z,0.79
2016-11-15T01:25:25.511Z,0.74
2016-11-15T01:26:39.329Z,0.76
2016-11-15T01:27:51.748Z,0.82
2016-11-15T01:29:35.059Z,0.92
2016-11-15T01:30:48.740Z,0.84
2016-11-15T01:32:02.421Z,0.86
2016-11-15T01:33:14.843Z,0.86
2016-11-15T01:34:27.238Z,0.78
2016-11-15T01:35:41.023Z,0.82
2016-11-15T01:37:25.554Z,0.79
2016-11-15T01:39:10.147Z,0.79
2016-11-15T01:40:24.065Z,0.84
2016-11-15T01:41:37.764Z,0.84
2016-11-15T01:42:51.452Z,0.78
2016-11-15T01:44:05.135Z,0.82
2016-11-15T01:45:17.532Z,0.88
2016-11-15T01:46:28.634Z,0.84
2016-11-15T01:47:42.325Z,0.92
2016-11-15T01:48:56.068Z,0.85
2016-11-15T01:50:08.498Z,0.86
2016-11-15T01:51:22.239Z,0.93
2016-11-15T01:52:35.961Z,0.9
2016-11-15T01:53:49.647Z,0.85
2016-11-15T01:55:03.330Z,0.97
2016-11-15T01:56:15.730Z,0.92
2016-11-15T01:57:28.142Z,0.88
2016-11-15T01:58:40.556Z,0.85
2016-11-15T01:59:53.055Z,0.92
2016-11-15T02:01:06.761Z,0.94
2016-11-15T02:02:19.176Z,0.99
2016-11-15T02:03:32.861Z,1
2016-11-15T02:04:46.580Z,1.02
2016-11-15T02:06:00.284Z,1.03
2016-11-15T02:07:13.985Z,1.06
2016-11-15T02:08:27.668Z,1.08
2016-11-15T02:09:41.404Z,1.03
2016-11-15T02:10:55.168Z,1.1
2016-11-15T02:12:08.844Z,1.06
2016-11-15T02:13:22.657Z,1.04
2016-11-15T02:14:36.342Z,1.1
2016-11-15T02:15:47.464Z,1.06
2016-11-15T02:16:58.582Z,1.03
2016-11-15T02:18:12.298Z,1.08
2016-11-15T02:19:23.401Z,1.06
2016-11-15T02:20:35.801Z,1.02
2016-11-15T02:21:48.235Z,1.03
2016-11-15T02:23:01.912Z,1.1
2016-11-15T02:24:13.247Z,1.15
2016-11-15T02:25:26.944Z,1.18
2016-11-15T02:26:39.468Z,1.21
2016-11-15T02:27:51.925Z,1.22
2016-11-15T02:29:04.412Z,1.22
2016-11-15T02:30:18.105Z,1.24
2016-11-15T02:31:30.526Z,1.21
2016-11-15T02:32:44.212Z,1.29
2016-11-15T02:33:57.888Z,1.28
2016-11-15T02:35:11.812Z,1.32
2016-11-15T02:36:22.960Z,1.35
2016-11-15T02:37:36.654Z,1.33
2016-11-15T02:38:50.379Z,1.22
2016-11-15T02:40:04.079Z,1.35
2016-11-15T02:41:15.204Z,1.33
2016-11-15T02:42:27.599Z,1.33
2016-11-15T02:43:39.995Z,1.33
2016-11-15T02:44:52.397Z,1.33
2016-11-15T02:46:06.313Z,1.35
2016-11-15T02:47:18.905Z,1.29
2016-11-15T02:48:31.302Z,1.3
2016-11-15T02:49:42.480Z,1.4
2016-11-15T02:50:56.166Z,1.33
2016-11-15T02:52:08.552Z,1.32
2016-11-15T02:53:22.359Z,1.3
2016-11-15T02:54:36.099Z,1.33
2016-11-15T02:55:48.518Z,1.35
2016-11-15T02:57:00.929Z,1.38
2016-11-15T02:58:14.683Z,1.35
2016-11-15T02:59:25.800Z,1.32
2016-11-15T03:00:38.197Z,1.38
2016-11-15T03:01:51.892Z,1.33
2016-11-15T03:03:04.361Z,1.38
2016-11-15T03:04:16.796Z,1.39
2016-11-15T03:05:30.509Z,1.33
2016-11-15T03:06:44.197Z,1.33
2016-11-15T03:07:55.299Z,1.32
2016-11-15T03:09:05.129Z,1.35
2016-11-15T03:10:18.828Z,1.38
2016-11-15T03:11:32.535Z,1.32
2016-11-15T03:12:43.672Z,1.33
2016-11-15T03:13:56.077Z,1.33
2016-11-15T03:15:08.481Z,1.42
2016-11-15T03:16:20.891Z,1.35
2016-11-15T03:17:33.392Z,1.4
2016-11-15T03:18:44.542Z,1.43
2016-11-15T03:19:58.232Z,1.48
2016-11-15T03:21:10.698Z,1.46
2016-11-15T03:22:24.379Z,1.4
2016-11-15T03:23:35.493Z,1.46
2016-11-15T03:24:49.404Z,1.42
2016-11-15T03:26:01.817Z,1.43
2016-11-15T03:27:14.229Z,1.4
2016-11-15T03:28:25.335Z,1.47
2016-11-15T03:29:37.760Z,1.39
2016-11-15T03:30:51.454Z,1.46
2016-11-15T03:32:03.875Z,1.35
2016-11-15T03:33:15.229Z,1.36
2016-11-15T03:34:28.995Z,1.32
2016-11-15T03:35:42.676Z,1.32
2016-11-15T03:36:56.449Z,1.35
2016-11-15T03:38:10.126Z,1.42
2016-11-15T03:39:22.557Z,1.42
2016-11-15T03:40:36.253Z,1.46
2016-11-15T03:41:48.737Z,1.43
2016-11-15T03:43:02.446Z,1.25
2016-11-15T03:44:13.563Z,1.35
2016-11-15T03:45:27.313Z,1.33
2016-11-15T03:46:39.703Z,1.22
2016-11-15T03:47:53.385Z,1.29
2016-11-15T03:49:07.070Z,1.35
2016-11-15T03:50:20.770Z,1.3
2016-11-15T03:51:34.454Z,1.32
2016-11-15T03:52:46.859Z,1.22
2016-11-15T03:54:00.575Z,1.22
2016-11-15T03:55:14.483Z,1.33
2016-11-15T03:56:28.182Z,1.32
2016-11-15T03:57:41.869Z,1.35
2016-11-15T03:58:53.010Z,1.32
2016-11-15T04:00:06.695Z,1.24
2016-11-15T04:01:20.411Z,1.2
2016-11-15T04:02:32.808Z,1.22
2016-11-15T04:03:45.200Z,1.22
2016-11-15T04:04:57.592Z,1.17
2016-11-15T04:06:08.700Z,1.24
2016-11-15T04:07:21.107Z,1.25
2016-11-15T04:08:33.557Z,1.15
2016-11-15T04:09:47.284Z,1.14
2016-11-15T04:11:01.000Z,1.2
2016-11-15T04:12:14.683Z,1.15
2016-11-15T04:13:28.400Z,1.18
2016-11-15T04:14:42.090Z,1.11
2016-11-15T04:15:54.523Z,1.11
2016-11-15T04:17:06.926Z,1.12
2016-11-15T04:18:20.644Z,1.12
2016-11-15T04:19:31.793Z,1.14
2016-11-15T04:20:44.190Z,1.12
2016-11-15T04:21:57.882Z,1.14
2016-11-15T04:23:11.570Z,1.11
2016-11-15T04:24:25.268Z,1.14
2016-11-15T04:25:38.963Z,1.15
2016-11-15T04:26:52.862Z,1.2
2016-11-15T04:28:04.039Z,1.11
2016-11-15T04:29:16.452Z,1.14
2016-11-15T04:30:30.196Z,1.12
2016-11-15T04:31:43.889Z,1.12
2016-11-15T04:32:57.601Z,1.18
2016-11-15T04:34:11.306Z,1.2
2016-11-15T04:35:22.414Z,1.17
2016-11-15T04:36:34.809Z,1.15
2016-11-15T04:37:47.223Z,1.08
2016-11-15T04:39:01.124Z,1.12
2016-11-15T04:40:13.518Z,1.15
2016-11-15T04:41:26.018Z,1.04
2016-11-15T04:42:39.715Z,1.14
2016-11-15T04:43:52.132Z,1.15
2016-11-15T04:45:04.539Z,1.1
2016-11-15T04:46:16.936Z,1.11
2016-11-15T04:47:30.653Z,1.06
2016-11-15T04:48:44.331Z,1.12
2016-11-15T04:49:58.049Z,1.14
2016-11-15T04:51:09.180Z,1.11
2016-11-15T04:52:21.614Z,1.12
2016-11-15T04:53:35.314Z,1.2
2016-11-15T04:54:47.703Z,1.17
2016-11-15T04:56:01.549Z,1.18
2016-11-15T04:57:15.251Z,1.14
2016-11-15T04:58:28.932Z,1.12
2016-11-15T04:59:41.398Z,1.18
2016-11-15T05:00:55.122Z,1.17
2016-11-15T05:02:08.936Z,1.17
2016-11-15T05:03:22.631Z,1.22
2016-11-15T05:04:36.336Z,1.22
2016-11-15T05:05:47.604Z,1.18
2016-11-15T05:07:00.007Z,1.11
2016-11-15T05:08:12.404Z,1.18
2016-11-15T05:09:26.100Z,1.2
2016-11-15T05:10:38.512Z,1.2
2016-11-15T05:11:52.206Z,1.22
2016-11-15T05:13:03.315Z,1.21
2016-11-15T05:14:15.838Z,1.22
2016-11-15T05:15:29.532Z,1.24
2016-11-15T05:16:43.294Z,1.24
2016-11-15T05:17:57.005Z,1.21
2016-11-15T05:19:09.403Z,1.22
2016-11-15T05:20:21.834Z,1.32
2016-11-15T05:21:35.540Z,1.24
2016-11-15T05:22:49.266Z,1.33
2016-11-15T05:24:02.954Z,1.22
2016-11-15T05:25:16.644Z,1.35
2016-11-15T05:26:29.045Z,1.32
2016-11-15T05:27:42.733Z,1.25
2016-11-15T05:28:55.137Z,1.32
2016-11-15T05:30:08.840Z,1.3
2016-11-15T05:31:20.198Z,1.35
2016-11-15T05:32:33.886Z,1.32
2016-11-15T05:33:47.572Z,1.35
2016-11-15T05:34:59.981Z,1.32
2016-11-15T05:36:13.709Z,1.32
2016-11-15T05:37:26.141Z,1.33
2016-11-15T05:38:39.827Z,1.24
2016-11-15T05:39:52.224Z,1.3
2016-11-15T05:41:04.627Z,1.25
2016-11-15T05:42:17.046Z,1.24
2016-11-15T05:43:30.786Z,1.24
2016-11-15T05:44:43.173Z,1.36
2016-11-15T05:45:56.999Z,1.25
2016-11-15T05:47:10.695Z,1.32
2016-11-15T05:48:24.415Z,1.24
2016-11-15T05:49:38.095Z,1.35
2016-11-15T05:50:50.554Z,1.29
2016-11-15T05:52:04.238Z,1.38
2016-11-15T05:53:15.334Z,1.33
2016-11-15T05:54:29.029Z,1.46
2016-11-15T05:55:41.435Z,1.46
2016-11-15T05:56:55.367Z,1.35
2016-11-15T05:58:09.082Z,1.38
2016-11-15T05:59:22.758Z,1.32
2016-11-15T06:00:35.168Z,1.32
2016-11-15T06:01:48.859Z,1.33
2016-11-15T06:03:02.621Z,1.35
2016-11-15T06:04:16.328Z,1.38
2016-11-15T06:05:30.071Z,1.47
2016-11-15T06:06:43.805Z,1.4
2016-11-15T06:07:57.490Z,1.47
2016-11-15T06:09:11.176Z,1.42
2016-11-15T06:10:24.876Z,1.38
2016-11-15T06:11:38.593Z,1.4
2016-11-15T06:12:52.346Z,1.39
2016-11-15T06:14:03.568Z,1.42
2016-11-15T06:15:17.275Z,1.4
2016-11-15T06:16:30.974Z,1.47
2016-11-15T06:17:44.676Z,1.51
2016-11-15T06:18:58.385Z,1.4
2016-11-15T06:20:12.087Z,1.55
2016-11-15T06:21:24.532Z,1.53
2016-11-15T06:22:38.249Z,1.5
2016-11-15T06:23:50.658Z,1.46
2016-11-15T06:25:04.339Z,1.43
2016-11-15T06:26:16.810Z,1.54
2016-11-15T06:27:29.267Z,1.48
2016-11-15T06:28:41.668Z,1.57
2016-11-15T06:29:54.088Z,1.53
2016-11-15T06:31:07.840Z,1.53
2016-11-15T06:32:21.543Z,1.54
2016-11-15T06:33:35.249Z,1.53
2016-11-15T06:34:48.940Z,1.51
2016-11-15T06:36:01.346Z,1.62
2016-11-15T06:37:15.218Z,1.47
2016-11-15T06:38:28.905Z,1.5
2016-11-15T06:39:42.585Z,1.4
2016-11-15T06:40:52.439Z,1.46
2016-11-15T06:42:06.142Z,1.47
2016-11-15T06:43:19.825Z,1.54
2016-11-15T06:44:32.264Z,1.48
2016-11-15T06:45:46.032Z,1.46
2016-11-15T06:46:59.738Z,1.5
2016-11-15T06:48:12.151Z,1.48
2016-11-15T06:49:25.856Z,1.43
2016-11-15T06:50:38.246Z,1.43
2016-11-15T06:51:51.993Z,1.43
2016-11-15T06:53:05.709Z,1.43
2016-11-15T06:54:19.393Z,1.47
2016-11-15T06:55:30.609Z,1.46
2016-11-15T06:56:41.737Z,1.48
2016-11-15T06:57:54.149Z,1.42
2016-11-15T06:59:04.018Z,1.43
2016-11-15T07:00:17.707Z,1.46
2016-11-15T07:01:31.456Z,1.47
2016-11-15T07:02:43.871Z,1.43
2016-11-15T07:03:56.274Z,1.48
2016-11-15T07:05:08.674Z,1.43
2016-11-15T07:06:22.521Z,1.33
2016-11-15T07:07:36.255Z,1.39
2016-11-15T07:08:48.684Z,1.4
2016-11-15T07:09:59.797Z,1.38
2016-11-15T07:11:12.211Z,1.32
2016-11-15T07:12:24.721Z,1.32
2016-11-15T07:13:38.413Z,1.3
2016-11-15T07:14:52.370Z,1.33
2016-11-15T07:16:03.485Z,1.35
2016-11-15T07:17:15.919Z,1.32
2016-11-15T07:18:28.320Z,1.35
2016-11-15T07:19:40.720Z,1.38
2016-11-15T07:20:54.407Z,1.25
2016-11-15T07:22:08.198Z,1.25
2016-11-15T07:23:19.311Z,1.2
2016-11-15T07:24:32.998Z,1.22
2016-11-15T07:25:45.561Z,1.22
2016-11-15T07:26:59.269Z,1.2
2016-11-15T07:28:13.205Z,1.28
2016-11-15T07:29:26.891Z,1.22
2016-11-15T07:30:39.285Z,1.21
2016-11-15T07:31:52.976Z,1.18
2016-11-15T07:33:05.381Z,1.2
2016-11-15T07:34:19.402Z,1.12
2016-11-15T07:35:33.107Z,1.12
2016-11-15T07:36:44.260Z,1.04
2016-11-15T07:37:57.955Z,1
2016-11-15T07:39:11.708Z,1.03
2016-11-15T07:40:25.393Z,1.12
2016-11-15T07:41:37.803Z,1.04
2016-11-15T07:42:49.039Z,0.99
2016-11-15T07:44:02.762Z,1.04
2016-11-15T07:45:15.162Z,1.04
2016-11-15T07:46:27.548Z,1.04
2016-11-15T07:47:41.297Z,1
2016-11-15T07:48:54.995Z,1.06
2016-11-15T07:50:04.840Z,1.06
2016-11-15T07:51:18.547Z,1.03
2016-11-15T07:52:29.801Z,0.99
2016-11-15T07:53:43.484Z,1.08
2016-11-15T07:54:55.885Z,1.03
2016-11-15T07:56:08.433Z,0.99
2016-11-15T07:57:20.833Z,0.97
2016-11-15T07:58:33.333Z,1
2016-11-15T07:59:45.775Z,0.96
2016-11-15T08:00:58.178Z,0.96
2016-11-15T08:02:11.903Z,1.04
2016-11-15T08:03:24.326Z,0.97
2016-11-15T08:04:34.180Z,0.99
2016-11-15T08:05:48.043Z,0.92
2016-11-15T08:07:00.450Z,0.88
2016-11-15T08:08:14.374Z,0.93
2016-11-15T08:09:26.778Z,1
2016-11-15T08:10:40.473Z,0.97
2016-11-15T08:11:50.340Z,0.99
2016-11-15T08:13:02.765Z,1.03
2016-11-15T08:14:16.471Z,1.03
2016-11-15T08:15:30.174Z,1.06
2016-11-15T08:16:43.856Z,1.12
2016-11-15T08:17:57.551Z,1.2
2016-11-15T08:19:09.959Z,1.22
2016-11-15T08:20:23.697Z,1.2
2016-11-15T08:21:37.642Z,1.22
2016-11-15T08:22:48.864Z,1.21
2016-11-15T08:24:01.300Z,1.18
2016-11-15T08:25:15.057Z,1.29
2016-11-15T08:26:27.479Z,1.24
2016-11-15T08:27:39.944Z,1.24
2016-11-15T08:28:53.858Z,1.22
2016-11-15T08:30:07.578Z,1.2
2016-11-15T08:31:19.975Z,1.28
2016-11-15T08:32:33.674Z,1.21
2016-11-15T08:33:47.361Z,1.25
2016-11-15T08:35:01.094Z,1.25
2016-11-15T08:36:13.508Z,1.22
2016-11-15T08:37:27.235Z,1.24
2016-11-15T08:38:39.686Z,1.21
2016-11-15T08:39:53.375Z,1.35
2016-11-15T08:41:07.056Z,1.22
2016-11-15T08:42:19.460Z,1.33
2016-11-15T08:43:33.177Z,1.25
2016-11-15T08:44:45.600Z,1.21
2016-11-15T08:45:58.002Z,1.28
2016-11-15T08:47:09.118Z,1.2
2016-11-15T08:48:22.829Z,1.25
2016-11-15T08:49:35.231Z,1.24
2016-11-15T08:50:47.686Z,1.24
2016-11-15T08:52:01.379Z,1.2
2016-11-15T08:53:13.779Z,1.15
2016-11-15T08:54:27.551Z,1.2
2016-11-15T08:55:41.423Z,1.25
2016-11-15T08:56:54.267Z,1.22
2016-11-15T08:58:08.205Z,1.21
2016-11-15T08:59:20.629Z,1.33
2016-11-15T09:00:31.741Z,1.3
2016-11-15T09:01:44.151Z,1.38
2016-11-15T09:02:56.573Z,1.28
2016-11-15T09:04:10.299Z,1.2
2016-11-15T09:05:23.983Z,1.21
2016-11-15T09:06:37.682Z,1.21
2016-11-15T09:07:50.143Z,1.17
2016-11-15T09:09:02.535Z,1.35
2016-11-15T09:10:14.942Z,1.32
2016-11-15T09:11:28.702Z,1.3
2016-11-15T09:12:42.462Z,1.33
2016-11-15T09:13:54.890Z,1.39
2016-11-15T09:15:07.441Z,1.4
2016-11-15T09:16:21.162Z,1.4
2016-11-15T09:17:34.880Z,1.43
2016-11-15T09:18:48.564Z,1.35
2016-11-15T09:20:02.269Z,1.3
2016-11-15T09:21:14.824Z,1.39
2016-11-15T09:22:27.221Z,1.42
2016-11-15T09:23:39.635Z,1.46
2016-11-15T09:24:53.448Z,1.55
2016-11-15T09:26:05.861Z,1.57
2016-11-15T09:27:18.386Z,1.64
2016-11-15T09:28:32.122Z,1.57
2016-11-15T09:29:45.817Z,1.53
2016-11-15T09:30:55.688Z,1.5
2016-11-15T09:32:09.370Z,1.53
2016-11-15T09:33:21.906Z,1.53
2016-11-15T09:34:35.608Z,1.6
2016-11-15T09:35:49.352Z,1.57
2016-11-15T09:37:03.038Z,1.66
2016-11-15T09:38:16.766Z,1.43
2016-11-15T09:39:30.467Z,1.54
2016-11-15T09:40:42.859Z,1.55
2016-11-15T09:41:55.497Z,1.48
2016-11-15T09:43:07.969Z,1.54
2016-11-15T09:44:20.377Z,1.62
2016-11-15T09:45:34.067Z,1.7
2016-11-15T09:46:45.183Z,1.76
2016-11-15T09:47:58.888Z,1.73
2016-11-15T09:49:11.325Z,1.67
2016-11-15T09:50:23.746Z,1.64
2016-11-15T09:51:36.156Z,1.55
2016-11-15T09:52:49.884Z,1.54
2016-11-15T09:54:03.565Z,1.69
2016-11-15T09:55:17.271Z,1.5
2016-11-15T09:56:29.663Z,1.72
2016-11-15T09:57:42.092Z,1.73
2016-11-15T09:58:55.809Z,1.74
2016-11-15T10:00:09.526Z,1.77
2016-11-15T10:01:23.220Z,1.66
2016-11-15T10:02:36.897Z,1.72
2016-11-15T10:03:50.597Z,1.72
2016-11-15T10:05:04.430Z,1.79
2016-11-15T10:06:18.203Z,1.79
2016-11-15T10:07:31.870Z,1.73
2016-11-15T10:08:43.032Z,1.73
2016-11-15T10:09:56.721Z,1.73
2016-11-15T10:11:10.447Z,1.73
2016-11-15T10:12:21.636Z,1.73
2016-11-15T10:13:34.067Z,1.85
2016-11-15T10:14:45.284Z,1.72
2016-11-15T10:15:57.806Z,1.85
2016-11-15T10:17:10.245Z,1.84
2016-11-15T10:18:22.654Z,1.94
2016-11-15T10:19:36.410Z,1.98
2016-11-15T10:20:50.193Z,1.95
2016-11-15T10:22:03.901Z,1.97
2016-11-15T10:23:15.012Z,2.01
2016-11-15T10:24:27.424Z,2.05
2016-11-15T10:25:41.114Z,2.03
2016-11-15T10:26:54.798Z,2.05
2016-11-15T10:28:08.519Z,1.98
2016-11-15T10:29:19.821Z,2.06
2016-11-15T10:30:32.222Z,2.06
2016-11-15T10:31:45.902Z,2
2016-11-15T10:32:58.308Z,2.1
2016-11-15T10:34:12.001Z,2.12
2016-11-15T10:35:25.694Z,2.1
2016-11-15T10:36:39.405Z,2.06
2016-11-15T10:37:51.796Z,2.06
2016-11-15T10:39:05.726Z,2
2016-11-15T10:40:19.672Z,2.01
2016-11-15T10:41:33.358Z,1.98
2016-11-15T10:42:43.190Z,2.01
2016-11-15T10:43:56.870Z,2.01
2016-11-15T10:45:07.995Z,2.06
2016-11-15T10:46:21.699Z,2.12
2016-11-15T10:47:35.402Z,2.08
2016-11-15T10:48:47.788Z,2.23
2016-11-15T10:50:01.483Z,2.27
2016-11-15T10:51:15.169Z,2.3
2016-11-15T10:52:27.598Z,2.27
2016-11-15T10:54:10.929Z,2.39
2016-11-15T10:55:24.622Z,2.34
2016-11-15T10:56:37.032Z,2.45
2016-11-15T10:57:50.744Z,2.45
2016-11-15T10:59:04.544Z,2.42
2016-11-15T11:00:14.379Z,2.45
2016-11-15T11:01:28.081Z,2.48
2016-11-15T11:02:39.268Z,2.46
2016-11-15T11:03:52.982Z,2.41
2016-11-15T11:05:06.999Z,2.41
2016-11-15T11:06:18.118Z,2.44
2016-11-15T11:07:30.552Z,2.42
2016-11-15T11:08:44.262Z,2.51
2016-11-15T11:09:57.948Z,2.51
2016-11-15T11:11:11.663Z,2.49
2016-11-15T11:12:25.355Z,2.55
2016-11-15T11:13:39.058Z,2.53
2016-11-15T11:14:51.662Z,2.64
2016-11-15T11:16:05.459Z,2.71
2016-11-15T11:17:17.864Z,2.64
2016-11-15T11:18:30.324Z,2.71
2016-11-15T11:19:42.714Z,2.81
2016-11-15T11:20:55.123Z,2.77
2016-11-15T11:22:07.566Z,2.7
2016-11-15T11:23:19.960Z,2.78
2016-11-15T11:24:33.894Z,2.79
2016-11-15T11:25:47.605Z,2.89
2016-11-15T11:27:01.323Z,2.88
2016-11-15T11:28:15.012Z,2.89
2016-11-15T11:29:28.710Z,2.81
2016-11-15T11:30:41.334Z,2.85
2016-11-15T11:31:53.760Z,2.82
2016-11-15T11:33:06.164Z,2.77
2016-11-15T11:34:19.870Z,2.73
2016-11-15T11:35:32.333Z,2.7
2016-11-15T11:36:46.014Z,2.74
2016-11-15T11:37:58.421Z,2.71
2016-11-15T11:39:12.147Z,2.77
2016-11-15T11:40:24.556Z,2.7
2016-11-15T11:41:35.703Z,2.74
2016-11-15T11:42:49.419Z,2.77
2016-11-15T11:44:03.111Z,2.77
2016-11-15T11:45:15.763Z,2.79
2016-11-15T11:46:28.185Z,2.81
2016-11-15T11:47:40.589Z,2.85
2016-11-15T11:48:51.713Z,2.88
2016-11-15T11:50:04.112Z,2.91
2016-11-15T11:51:17.818Z,2.87
2016-11-15T11:52:30.231Z,2.89
2016-11-15T11:53:43.930Z,2.74
2016-11-15T11:54:56.456Z,2.77
2016-11-15T11:56:10.166Z,2.79
2016-11-15T11:57:22.607Z,2.88
2016-11-15T11:58:35.012Z,2.87
2016-11-15T11:59:47.460Z,2.91
2016-11-15T12:00:58.572Z,2.97
2016-11-15T12:02:12.272Z,2.92
2016-11-15T12:03:24.711Z,2.91
2016-11-15T12:04:37.122Z,2.88
2016-11-15T12:05:49.558Z,2.89
2016-11-15T12:07:00.671Z,2.87
2016-11-15T12:08:13.068Z,2.89
2016-11-15T12:09:26.768Z,2.81
2016-11-15T12:10:40.493Z,2.84
2016-11-15T12:11:51.641Z,2.89
2016-11-15T12:13:05.357Z,2.85
2016-11-15T12:14:19.266Z,2.87
2016-11-15T12:15:30.496Z,2.92
2016-11-15T12:16:42.894Z,2.92
2016-11-15T12:17:55.343Z,2.87
2016-11-15T12:19:07.781Z,2.88
2016-11-15T12:20:20.207Z,2.85
2016-11-15T12:21:34.073Z,2.88
2016-11-15T12:22:47.754Z,2.78
2016-11-15T12:24:00.157Z,2.85
2016-11-15T12:25:13.874Z,2.85
2016-11-15T12:26:27.624Z,2.94
2016-11-15T12:27:41.486Z,2.96
2016-11-15T12:28:55.196Z,2.82
2016-11-15T12:30:08.901Z,2.89
2016-11-15T12:31:22.624Z,2.94
2016-11-15T12:32:35.067Z,2.92
2016-11-15T12:33:48.983Z,2.82
2016-11-15T12:35:01.384Z,2.91
2016-11-15T12:36:13.788Z,2.89
2016-11-15T12:37:27.521Z,2.99
2016-11-15T12:38:38.646Z,2.96
2016-11-15T12:39:51.151Z,2.88
2016-11-15T12:41:35.699Z,2.91
2016-11-15T12:42:49.472Z,2.81
2016-11-15T12:44:03.246Z,2.82
2016-11-15T12:45:16.950Z,2.84
2016-11-15T12:46:28.319Z,2.88
2016-11-15T12:47:42.019Z,2.85
2016-11-15T12:48:53.395Z,2.79
2016-11-15T12:50:38.008Z,2.81
2016-11-15T12:51:51.718Z,2.85
2016-11-15T12:53:04.140Z,2.91
2016-11-15T12:54:17.846Z,2.91
2016-11-15T12:55:31.573Z,2.81
2016-11-15T12:56:45.254Z,2.88
2016-11-15T12:57:59.163Z,2.91
2016-11-15T12:59:12.851Z,2.87
2016-11-15T13:00:25.273Z,2.87
2016-11-15T13:01:38.988Z,2.79
2016-11-15T13:02:52.930Z,2.85
2016-11-15T13:04:05.339Z,2.85
2016-11-15T13:05:17.858Z,2.87
2016-11-15T13:06:31.603Z,2.87
2016-11-15T13:07:44.017Z,2.85
2016-11-15T13:08:57.750Z,2.85
2016-11-15T13:10:08.912Z,2.97
2016-11-15T13:11:21.406Z,3.02
2016-11-15T13:12:33.831Z,2.94
2016-11-15T13:13:47.522Z,2.96
2016-11-15T13:15:01.216Z,2.99
2016-11-15T13:16:14.905Z,2.92
2016-11-15T13:17:28.596Z,2.82
2016-11-15T13:18:42.285Z,2.94
2016-11-15T13:19:54.718Z,2.87
2016-11-15T13:21:05.822Z,2.91
2016-11-15T13:22:18.344Z,2.84
2016-11-15T13:23:32.035Z,2.81
2016-11-15T13:24:44.439Z,2.85
2016-11-15T13:25:58.227Z,2.82
2016-11-15T13:27:10.850Z,2.88
2016-11-15T13:28:23.248Z,2.88
2016-11-15T13:29:36.953Z,2.97
2016-11-15T13:30:49.371Z,2.94
2016-11-15T13:32:03.315Z,2.85
2016-11-15T13:33:15.745Z,2.85
2016-11-15T13:34:29.668Z,2.84
2016-11-15T13:35:42.082Z,2.82
2016-11-15T13:36:55.785Z,2.87
2016-11-15T13:38:09.501Z,2.85
2016-11-15T13:39:23.203Z,2.84
2016-11-15T13:40:34.322Z,2.85
2016-11-15T13:41:48.016Z,2.81
2016-11-15T13:43:01.720Z,2.82
2016-11-15T13:44:15.418Z,2.84
2016-11-15T13:45:27.879Z,2.77
2016-11-15T13:46:41.561Z,2.77
2016-11-15T13:47:55.320Z,2.78
2016-11-15T13:49:07.735Z,2.81
2016-11-15T13:50:21.470Z,2.78
2016-11-15T13:51:35.349Z,2.84
2016-11-15T13:52:47.764Z,2.79
2016-11-15T13:54:00.186Z,2.78
2016-11-15T13:55:13.925Z,2.77
2016-11-15T13:56:27.667Z,2.79
2016-11-15T13:57:38.783Z,2.74
2016-11-15T13:58:49.905Z,2.85
2016-11-15T14:00:03.602Z,2.87
2016-11-15T14:01:16.005Z,2.82
2016-11-15T14:02:28.518Z,2.85
2016-11-15T14:03:42.207Z,2.91
2016-11-15T14:04:54.620Z,2.85
2016-11-15T14:06:08.304Z,2.88
2016-11-15T14:07:20.737Z,2.91
2016-11-15T14:08:34.471Z,2.97
2016-11-15T14:09:46.933Z,2.87
2016-11-15T14:10:59.360Z,2.82
2016-11-15T14:12:11.775Z,2.87
2016-11-15T14:13:24.270Z,2.85
2016-11-15T14:14:36.805Z,2.88
2016-11-15T14:15:50.511Z,2.92
2016-11-15T14:17:02.936Z,2.82
2016-11-15T14:18:16.878Z,2.82
2016-11-15T14:19:30.575Z,2.82
2016-11-15T14:20:41.718Z,2.84
2016-11-15T14:21:54.135Z,2.81
2016-11-15T14:23:06.615Z,2.79
2016-11-15T14:24:19.058Z,2.79
2016-11-15T14:25:30.193Z,2.88
2016-11-15T14:26:42.646Z,2.85
2016-11-15T14:27:55.089Z,2.85
2016-11-15T14:29:08.814Z,2.87
2016-11-15T14:30:21.225Z,2.82
2016-11-15T14:31:34.937Z,2.87
2016-11-15T14:32:47.352Z,2.85
2016-11-15T14:34:01.085Z,2.84
2016-11-15T14:35:14.776Z,2.84
2016-11-15T14:36:28.485Z,2.87
2016-11-15T14:37:40.882Z,2.81
2016-11-15T14:38:53.351Z,2.85
2016-11-15T14:40:07.063Z,2.88
2016-11-15T14:41:18.289Z,2.96
2016-11-15T14:42:30.721Z,2.85
2016-11-15T14:43:43.130Z,2.84
2016-11-15T14:44:55.543Z,2.92
2016-11-15T14:46:08.029Z,2.92
2016-11-15T14:47:20.450Z,2.89
2016-11-15T14:48:34.176Z,2.89
2016-11-15T14:49:47.919Z,2.96
2016-11-15T14:51:01.880Z,2.92
2016-11-15T14:52:13.151Z,2.97
2016-11-15T14:53:26.857Z,2.96
2016-11-15T14:54:39.264Z,2.92
2016-11-15T14:55:52.968Z,2.91
2016-11-15T14:57:05.428Z,3.02
2016-11-15T14:58:19.137Z,3.07
2016-11-15T14:59:32.901Z,2.96
2016-11-15T15:00:46.590Z,2.99
2016-11-15T15:02:00.310Z,3
2016-11-15T15:03:14.029Z,3.02
2016-11-15T15:04:27.736Z,2.97
2016-11-15T15:05:40.194Z,3.06
2016-11-15T15:06:53.911Z,3
2016-11-15T15:08:06.364Z,3.08
2016-11-15T15:09:18.764Z,3.08
2016-11-15T15:10:32.498Z,3.08
2016-11-15T15:11:44.925Z,3.1
2016-11-15T15:12:58.606Z,3.1
2016-11-15T15:14:11.077Z,3.1
2016-11-15T15:15:24.994Z,3.11
2016-11-15T15:16:38.686Z,3.1
2016-11-15T15:17:51.241Z,3.13
2016-11-15T15:19:04.963Z,3.1
2016-11-15T15:20:17.404Z,3.02
2016-11-15T15:21:29.873Z,3.04
2016-11-15T15:22:42.332Z,3.02
2016-11-15T15:23:56.124Z,3.04
2016-11-15T15:25:09.866Z,3.02
2016-11-15T15:26:22.288Z,3.07
2016-11-15T15:27:35.995Z,3.08
2016-11-15T15:28:48.443Z,3.13
2016-11-15T15:30:10.214Z,3.04
2016-11-15T15:31:39.956Z,3.06
2016-11-15T15:32:53.666Z,3.1
2016-11-15T15:34:07.401Z,3.08
2016-11-15T15:35:18.536Z,3.1
2016-11-15T15:36:32.272Z,3.08
2016-11-15T15:37:45.983Z,3.16
2016-11-15T15:38:59.727Z,3.1
2016-11-15T15:40:12.218Z,3.11
2016-11-15T15:41:26.018Z,3.19
2016-11-15T15:42:38.428Z,3.19
2016-11-15T15:43:52.234Z,3.21
2016-11-15T15:45:05.946Z,3.21
2016-11-15T15:46:18.359Z,3.22
2016-11-15T15:47:32.061Z,3.29
2016-11-15T15:48:43.188Z,3.25
2016-11-15T15:49:55.668Z,3.29
2016-11-15T15:51:08.106Z,3.26
2016-11-15T15:52:21.856Z,3.32
2016-11-15T15:53:35.587Z,3.34
2016-11-15T15:54:49.292Z,3.28
2016-11-15T15:56:03.229Z,3.39
2016-11-15T15:57:16.937Z,3.31
2016-11-15T15:58:30.633Z,3.29
2016-11-15T15:59:43.108Z,3.4
2016-11-15T16:00:55.670Z,3.32
2016-11-15T16:02:08.535Z,3.34
2016-11-15T16:03:22.632Z,3.4
2016-11-15T16:04:36.589Z,3.42
2016-11-15T16:05:49.023Z,3.54
2016-11-15T16:07:01.443Z,3.43
2016-11-15T16:08:15.162Z,3.43
2016-11-15T16:09:27.617Z,3.47
2016-11-15T16:10:40.091Z,3.44
2016-11-15T16:11:53.789Z,3.49
2016-11-15T16:13:04.903Z,3.49
2016-11-15T16:14:18.737Z,3.5
2016-11-15T16:15:29.918Z,3.54
2016-11-15T16:16:42.378Z,3.61
2016-11-15T16:17:56.081Z,3.58